createdAt,value
2022-09-26T00:01:44.077Z,10.83
2022-09-26T00:04:19.241Z,11.63
2022-09-26T00:06:51.854Z,11.40
2022-09-26T00:09:20.469Z,10.63
2022-09-26T00:11:49.227Z,11.77
2022-09-26T00:14:20.810Z,10.13
2022-09-26T00:16:51.530Z,10.80
2022-09-26T00:19:20.630Z,10.80
2022-09-26T00:21:49.776Z,11.80
2022-09-26T00:24:18.586Z,10.83
2022-09-26T00:26:47.143Z,10.43
2022-09-26T00:29:15.795Z,11.83
2022-09-26T00:31:46.144Z,10.03
2022-09-26T00:34:18.357Z,10.73
2022-09-26T00:36:47.011Z,10.60
2022-09-26T00:39:17.092Z,10.47
2022-09-26T00:41:46.175Z,10.40
2022-09-26T00:44:44.269Z,11.03
2022-09-26T00:47:27.815Z,11.53
2022-09-26T00:50:02.227Z,11.77
2022-09-26T00:52:35.949Z,11.03
2022-09-26T00:55:06.569Z,11.77
2022-09-26T00:57:39.350Z,10.33
2022-09-26T01:00:12.201Z,10.13
2022-09-26T01:02:41.208Z,9.97
2022-09-26T01:05:14.525Z,10.90
2022-09-26T01:07:43.257Z,10.37
2022-09-26T01:10:12.352Z,10.47
2022-09-26T01:12:42.485Z,10.73
2022-09-26T01:15:13.291Z,9.90
2022-09-26T01:17:44.453Z,9.97
2022-09-26T01:20:36.565Z,11.03
2022-09-26T01:23:42.195Z,10.77
2022-09-26T01:26:34.574Z,9.90
2022-09-26T01:29:40.934Z,9.90
2022-09-26T01:32:39.169Z,10.20
2022-09-26T01:35:17.891Z,9.70
2022-09-26T01:37:56.786Z,9.97
2022-09-26T01:40:33.581Z,10.20
2022-09-26T01:43:12.563Z,10.07
2022-09-26T01:45:50.524Z,9.63
2022-09-26T01:48:26.641Z,9.83
2022-09-26T01:51:00.168Z,10.43
2022-09-26T01:53:34.477Z,10.13
2022-09-26T01:56:06.294Z,10.67
2022-09-26T01:58:38.324Z,11.13
2022-09-26T02:01:11.765Z,9.57
2022-09-26T02:03:46.983Z,10.83
2022-09-26T02:06:20.027Z,10.67
2022-09-26T02:08:53.370Z,9.90
2022-09-26T02:11:22.341Z,11.13
2022-09-26T02:13:53.343Z,10.50
2022-09-26T02:16:25.505Z,10.37
2022-09-26T02:19:01.447Z,11.13
2022-09-26T02:21:30.182Z,11.07
2022-09-26T02:23:58.900Z,11.00
2022-09-26T02:26:27.425Z,12.07
2022-09-26T02:28:55.863Z,10.03
2022-09-26T02:31:27.897Z,11.23
2022-09-26T02:33:58.754Z,11.60
2022-09-26T02:36:27.162Z,10.70
2022-09-26T02:38:55.593Z,11.10
2022-09-26T02:41:32.219Z,12.37
2022-09-26T02:44:27.389Z,11.50
2022-09-26T02:47:12.010Z,11.40
2022-09-26T02:50:08.574Z,11.90
2022-09-26T02:52:51.812Z,10.70
2022-09-26T02:55:23.401Z,11.07
2022-09-26T02:58:04.141Z,11.27
2022-09-26T03:00:46.556Z,10.23
2022-09-26T03:03:21.583Z,11.83
2022-09-26T03:05:55.027Z,10.83
2022-09-26T03:08:27.399Z,11.27
2022-09-26T03:11:00.443Z,10.67
2022-09-26T03:13:34.392Z,11.83
2022-09-26T03:16:05.032Z,10.37
2022-09-26T03:18:38.726Z,10.20
2022-09-26T03:21:08.953Z,10.67
2022-09-26T03:23:37.612Z,9.83
2022-09-26T03:26:10.701Z,11.33
2022-09-26T03:28:39.593Z,11.63
2022-09-26T03:31:08.085Z,11.83
2022-09-26T03:33:36.813Z,10.63
2022-09-26T03:36:09.716Z,10.50
2022-09-26T03:38:38.436Z,10.57
2022-09-26T03:41:07.707Z,10.30
2022-09-26T03:43:36.761Z,10.40
2022-09-26T03:46:06.473Z,9.43
2022-09-26T03:48:35.781Z,10.23
2022-09-26T03:51:04.800Z,9.63
2022-09-26T03:53:40.013Z,9.57
2022-09-26T03:56:10.382Z,10.10
2022-09-26T03:58:39.087Z,10.37
2022-09-26T04:01:09.530Z,9.93
2022-09-26T04:03:40.033Z,9.97
2022-09-26T04:06:10.150Z,9.10
2022-09-26T04:08:41.581Z,9.30
2022-09-26T04:11:11.949Z,9.73
2022-09-26T04:13:51.239Z,8.87
2022-09-26T04:16:21.542Z,9.10
2022-09-26T04:18:50.598Z,9.83
2022-09-26T04:21:19.082Z,9.33
2022-09-26T04:23:49.824Z,9.27
2022-09-26T04:26:23.398Z,9.00
2022-09-26T04:28:55.623Z,8.93
2022-09-26T04:31:25.022Z,9.27
2022-09-26T04:33:55.113Z,9.43
2022-09-26T04:36:24.085Z,8.70
2022-09-26T04:38:54.043Z,9.00
2022-09-26T04:41:23.486Z,8.90
2022-09-26T04:43:52.776Z,8.50
2022-09-26T04:46:28.270Z,8.77
2022-09-26T04:49:01.341Z,9.43
2022-09-26T04:51:31.401Z,8.40
2022-09-26T04:54:07.477Z,8.87
2022-09-26T04:56:36.195Z,9.10
2022-09-26T04:59:04.740Z,9.93
2022-09-26T05:01:33.342Z,9.07
2022-09-26T05:04:02.041Z,9.67
2022-09-26T05:06:30.608Z,10.07
2022-09-26T05:09:00.829Z,10.30
2022-09-26T05:11:29.517Z,10.27
2022-09-26T05:13:58.028Z,10.17
2022-09-26T05:16:28.560Z,10.10
2022-09-26T05:18:57.357Z,10.80
2022-09-26T05:21:26.050Z,11.33
2022-09-26T05:24:11.716Z,11.30
2022-09-26T05:26:45.629Z,11.20
2022-09-26T05:29:14.251Z,11.10
2022-09-26T05:31:43.720Z,11.10
2022-09-26T05:34:19.227Z,10.93
2022-09-26T05:36:48.969Z,10.03
2022-09-26T05:39:36.769Z,9.97
2022-09-26T05:42:10.313Z,10.63
2022-09-26T05:44:39.316Z,10.40
2022-09-26T05:47:07.875Z,10.77
2022-09-26T05:49:36.386Z,11.07
2022-09-26T05:52:05.426Z,10.90
2022-09-26T05:54:33.898Z,11.83
2022-09-26T05:57:02.483Z,12.20
2022-09-26T05:59:32.666Z,11.80
2022-09-26T06:02:01.335Z,12.87
2022-09-26T06:04:29.944Z,12.73
2022-09-26T06:06:58.440Z,13.27
2022-09-26T06:09:26.943Z,12.17
2022-09-26T06:11:55.423Z,12.70
2022-09-26T06:14:25.660Z,14.27
2022-09-26T06:16:55.676Z,13.97
2022-09-26T06:19:24.269Z,13.53
2022-09-26T06:21:52.932Z,12.93
2022-09-26T06:24:21.516Z,14.90
2022-09-26T06:26:50.024Z,13.70
2022-09-26T06:29:18.918Z,12.90
2022-09-26T06:31:48.008Z,13.43
2022-09-26T06:34:18.133Z,12.70
2022-09-26T06:36:47.161Z,12.77
2022-09-26T06:39:16.231Z,12.20
2022-09-26T06:41:45.618Z,12.47
2022-09-26T06:44:14.673Z,12.37
2022-09-26T06:46:43.486Z,11.90
2022-09-26T06:49:12.126Z,12.90
2022-09-26T06:51:42.152Z,12.40
2022-09-26T06:54:10.624Z,12.73
2022-09-26T06:56:39.007Z,12.77
2022-09-26T06:59:07.793Z,13.67
2022-09-26T07:01:36.431Z,12.50
2022-09-26T07:04:05.541Z,12.70
2022-09-26T07:06:34.030Z,12.80
2022-09-26T07:09:07.571Z,12.97
2022-09-26T07:12:12.444Z,13.67
2022-09-26T07:14:29.311Z,14.03
2022-09-26T07:16:57.852Z,13.93
2022-09-26T07:19:26.398Z,14.33
2022-09-26T07:21:55.410Z,14.27
2022-09-26T07:24:27.480Z,13.87
2022-09-26T07:26:56.057Z,13.93
2022-09-26T07:29:24.745Z,15.13
2022-09-26T07:31:53.311Z,13.80
2022-09-26T07:34:25.312Z,15.70
2022-09-26T07:36:54.411Z,15.87
2022-09-26T07:39:24.626Z,14.57
2022-09-26T07:41:53.403Z,14.70
2022-09-26T07:47:27.555Z,15.80
2022-09-26T07:50:14.881Z,15.60
2022-09-26T07:52:44.508Z,15.87
2022-09-26T07:55:16.419Z,15.20
2022-09-26T07:57:47.288Z,14.83
2022-09-26T08:00:17.496Z,14.67
2022-09-26T08:02:47.195Z,16.07
2022-09-26T08:05:20.434Z,15.03
2022-09-26T08:07:49.611Z,15.60
2022-09-26T08:10:22.302Z,15.77
2022-09-26T08:12:51.611Z,14.87
2022-09-26T08:15:20.293Z,15.33
2022-09-26T08:17:48.757Z,15.27
2022-09-26T08:20:17.410Z,15.43
2022-09-26T08:22:45.898Z,14.93
2022-09-26T08:25:14.528Z,16.00
2022-09-26T08:27:45.265Z,15.43
2022-09-26T08:30:13.970Z,16.27
2022-09-26T08:32:42.746Z,16.07
2022-09-26T08:35:15.239Z,16.30
2022-09-26T08:37:43.722Z,15.97
2022-09-26T08:40:12.995Z,15.97
2022-09-26T08:42:57.780Z,15.73
2022-09-26T08:45:55.222Z,14.93
2022-09-26T08:48:44.693Z,15.33
2022-09-26T08:51:29.174Z,14.80
2022-09-26T08:54:06.213Z,14.97
2022-09-26T08:56:40.820Z,15.47
2022-09-26T08:59:19.993Z,15.53
2022-09-26T09:01:52.018Z,14.97
2022-09-26T09:04:25.921Z,16.23
2022-09-26T09:07:00.205Z,16.97
2022-09-26T09:09:28.756Z,16.10
2022-09-26T09:12:10.135Z,18.17
2022-09-26T09:15:13.716Z,19.10
2022-09-26T09:17:49.778Z,18.80
2022-09-26T09:20:22.903Z,19.23
2022-09-26T09:23:24.005Z,19.60
2022-09-26T09:29:39.311Z,20.03
2022-09-26T09:32:14.121Z,20.20
2022-09-26T09:34:44.632Z,19.80
2022-09-26T09:37:17.205Z,20.23
2022-09-26T09:39:49.056Z,17.50
2022-09-26T09:42:24.528Z,17.00
2022-09-26T09:44:57.271Z,14.83
2022-09-26T09:47:30.454Z,14.13
2022-09-26T09:50:00.616Z,14.10
2022-09-26T09:52:51.425Z,13.47
2022-09-26T09:55:34.319Z,14.53
2022-09-26T09:58:32.188Z,12.83
2022-09-26T10:01:10.093Z,12.87
2022-09-26T10:03:49.479Z,13.77
2022-09-26T10:06:45.861Z,13.17
2022-09-26T10:09:38.561Z,13.70
2022-09-26T10:12:13.711Z,12.10
2022-09-26T10:14:47.825Z,12.27
2022-09-26T10:17:23.215Z,13.10
2022-09-26T10:19:53.663Z,13.10
2022-09-26T10:22:29.630Z,13.47
2022-09-26T10:25:04.145Z,12.23
2022-09-26T10:27:45.237Z,13.37
2022-09-26T10:30:33.894Z,12.40
2022-09-26T10:33:03.722Z,11.67
2022-09-26T10:35:42.817Z,13.47
2022-09-26T10:38:21.996Z,12.33
2022-09-26T10:40:55.088Z,12.73
2022-09-26T10:43:28.819Z,13.00
2022-09-26T10:46:03.177Z,12.60
2022-09-26T10:48:47.318Z,13.97
2022-09-26T10:51:30.378Z,13.93
2022-09-26T10:54:05.165Z,13.37
2022-09-26T10:56:40.124Z,13.20
2022-09-26T10:59:11.922Z,13.20
2022-09-26T11:01:44.639Z,13.03
2022-09-26T11:04:37.500Z,14.50
2022-09-26T11:07:09.691Z,13.73
2022-09-26T11:09:39.852Z,14.67
2022-09-26T11:12:29.990Z,15.50
2022-09-26T11:15:02.215Z,16.03
2022-09-26T11:17:45.304Z,16.40
2022-09-26T11:20:25.787Z,15.13
2022-09-26T11:23:03.948Z,17.43
2022-09-26T11:25:40.811Z,18.27
2022-09-26T11:28:14.738Z,17.97
2022-09-26T11:30:48.497Z,18.07
2022-09-26T11:33:19.125Z,18.63
2022-09-26T11:35:59.783Z,18.73
2022-09-26T11:38:39.746Z,17.50
2022-09-26T11:41:36.757Z,17.50
2022-09-26T11:44:43.363Z,15.63
2022-09-26T11:47:37.342Z,16.43
2022-09-26T11:50:41.189Z,15.17
2022-09-26T11:53:26.882Z,13.23
2022-09-26T11:56:11.995Z,12.33
2022-09-26T11:58:49.497Z,11.37
2022-09-26T12:01:27.632Z,11.63
2022-09-26T12:04:41.396Z,11.30
2022-09-26T12:07:17.778Z,11.00
2022-09-26T12:10:01.782Z,10.73
2022-09-26T12:12:42.648Z,10.30
2022-09-26T12:15:23.930Z,10.13
2022-09-26T12:18:06.567Z,10.60
2022-09-26T12:20:44.670Z,9.90
2022-09-26T12:23:21.975Z,9.43
2022-09-26T12:26:00.997Z,9.20
2022-09-26T12:28:53.226Z,9.07
2022-09-26T12:31:34.114Z,9.33
2022-09-26T12:34:38.138Z,7.90
2022-09-26T12:37:19.266Z,7.17
2022-09-26T12:40:10.512Z,7.93
2022-09-26T12:42:57.024Z,8.97
2022-09-26T12:45:53.029Z,9.17
2022-09-26T12:48:32.790Z,10.03
2022-09-26T12:51:20.790Z,9.33
2022-09-26T12:54:06.319Z,9.50
2022-09-26T12:56:47.910Z,10.13
2022-09-26T12:59:38.501Z,10.63
2022-09-26T13:02:24.556Z,9.53
2022-09-26T13:05:20.255Z,11.50
2022-09-26T13:08:02.417Z,12.37
2022-09-26T13:10:39.751Z,11.90
2022-09-26T13:13:52.865Z,11.67
2022-09-26T13:16:31.981Z,11.93
2022-09-26T13:19:10.446Z,11.03
2022-09-26T13:21:46.371Z,12.80
2022-09-26T13:24:20.706Z,12.70
2022-09-26T13:26:55.521Z,12.20
2022-09-26T13:29:29.002Z,12.13
2022-09-26T13:32:07.441Z,11.97
2022-09-26T13:34:41.893Z,12.13
2022-09-26T13:37:20.896Z,11.40
2022-09-26T13:39:54.176Z,12.07
2022-09-26T13:42:33.207Z,11.63
2022-09-26T13:45:08.445Z,11.80
2022-09-26T13:47:43.240Z,11.33
2022-09-26T13:50:25.196Z,10.00
2022-09-26T13:53:05.600Z,10.33
2022-09-26T13:55:34.420Z,10.17
2022-09-26T13:58:07.344Z,10.40
2022-09-26T14:00:57.839Z,9.03
2022-09-26T14:03:44.808Z,8.37
2022-09-26T14:06:32.769Z,7.90
2022-09-26T14:09:24.998Z,8.03
2022-09-26T14:12:19.242Z,6.83
2022-09-26T14:14:53.735Z,6.90
2022-09-26T14:18:03.795Z,7.03
2022-09-26T14:20:40.903Z,6.57
2022-09-26T14:23:36.320Z,6.37
2022-09-26T14:26:10.659Z,5.37
2022-09-26T14:28:40.390Z,4.70
2022-09-26T14:31:39.358Z,5.07
2022-09-26T14:34:24.867Z,4.90
2022-09-26T14:36:55.096Z,5.53
2022-09-26T14:39:33.913Z,5.27
2022-09-26T14:42:19.122Z,4.83
2022-09-26T14:44:54.893Z,4.60
2022-09-26T14:47:24.989Z,4.50
2022-09-26T14:49:59.530Z,3.80
2022-09-26T14:52:28.311Z,4.70
2022-09-26T14:55:02.737Z,3.87
2022-09-26T14:57:34.275Z,4.20
2022-09-26T15:00:04.002Z,4.13
2022-09-26T15:02:41.565Z,3.40
2022-09-26T15:05:24.389Z,3.73
2022-09-26T15:07:54.119Z,3.67
2022-09-26T15:10:38.251Z,3.37
2022-09-26T15:13:22.217Z,3.17
2022-09-26T15:15:58.202Z,2.60
2022-09-26T15:18:36.359Z,2.17
2022-09-26T15:21:11.844Z,2.10
2022-09-26T15:23:49.602Z,1.57
2022-09-26T15:26:23.524Z,1.83
2022-09-26T15:28:53.726Z,1.83
2022-09-26T15:31:25.685Z,1.60
2022-09-26T15:34:00.567Z,2.00
2022-09-26T15:36:31.470Z,1.93
2022-09-26T15:39:00.557Z,2.20
2022-09-26T15:41:47.935Z,2.07
2022-09-26T15:44:21.806Z,1.90
2022-09-26T15:46:52.959Z,1.97
2022-09-26T15:49:33.315Z,1.80
2022-09-26T15:52:04.677Z,1.93
2022-09-26T15:54:41.854Z,1.93
2022-09-26T15:57:12.079Z,2.50
2022-09-26T15:59:44.755Z,6.77
2022-09-26T16:02:23.994Z,45.20
2022-09-26T16:04:54.970Z,33.40
2022-09-26T16:07:27.291Z,44.93
2022-09-26T16:09:57.745Z,30.63
2022-09-26T16:12:30.012Z,11.20
2022-09-26T16:15:03.106Z,6.20
2022-09-26T16:17:36.483Z,4.20
2022-09-26T16:20:24.533Z,2.20
2022-09-26T16:23:00.420Z,2.10
2022-09-26T16:25:35.416Z,2.13
2022-09-26T16:28:23.559Z,2.67
2022-09-26T16:31:11.315Z,2.47
2022-09-26T16:33:41.175Z,2.97
2022-09-26T16:36:19.401Z,3.53
2022-09-26T16:38:54.579Z,3.50
2022-09-26T16:41:56.805Z,2.67
2022-09-26T16:44:30.330Z,2.60
2022-09-26T16:47:03.930Z,2.37
2022-09-26T16:49:48.712Z,2.60
2022-09-26T16:52:28.452Z,2.63
2022-09-26T16:54:57.807Z,2.50
2022-09-26T16:57:29.191Z,2.50
2022-09-26T17:00:20.669Z,3.00
2022-09-26T17:02:49.595Z,4.87
2022-09-26T17:05:20.405Z,6.20
2022-09-26T17:07:50.916Z,4.77
2022-09-26T17:10:21.173Z,5.93
2022-09-26T17:12:53.332Z,6.83
2022-09-26T17:15:29.654Z,7.17
2022-09-26T17:17:58.885Z,5.80
2022-09-26T17:20:27.513Z,6.60
2022-09-26T17:22:56.118Z,6.70
2022-09-26T17:25:25.396Z,8.57
2022-09-26T17:27:59.910Z,12.47
2022-09-26T17:30:30.224Z,16.87
2022-09-26T17:33:02.711Z,30.37
2022-09-26T17:35:35.800Z,24.13
2022-09-26T17:38:04.608Z,21.97
2022-09-26T17:40:34.787Z,21.70
2022-09-26T17:43:03.500Z,22.27
2022-09-26T17:45:36.846Z,23.50
2022-09-26T17:48:08.911Z,23.77
2022-09-26T17:50:40.115Z,24.07
2022-09-26T17:53:21.185Z,23.97
2022-09-26T17:55:53.352Z,26.27
2022-09-26T17:58:22.683Z,27.70
2022-09-26T18:00:53.731Z,22.67
2022-09-26T18:03:27.023Z,23.57
2022-09-26T18:05:56.135Z,23.13
2022-09-26T18:08:28.374Z,23.17
2022-09-26T18:10:59.753Z,23.77
2022-09-26T18:13:31.897Z,27.90
2022-09-26T18:16:02.478Z,22.87
2022-09-26T18:18:32.559Z,21.00
2022-09-26T18:21:04.278Z,18.50
2022-09-26T18:23:43.444Z,19.73
2022-09-26T18:26:21.957Z,22.13
2022-09-26T18:28:50.955Z,22.27
2022-09-26T18:31:28.424Z,22.93
2022-09-26T18:33:58.464Z,24.43
2022-09-26T18:36:30.146Z,24.60
2022-09-26T18:39:00.415Z,26.13
2022-09-26T18:41:29.886Z,26.90
2022-09-26T18:44:03.067Z,25.43
2022-09-26T18:46:44.871Z,33.50
2022-09-26T18:49:15.607Z,43.93
2022-09-26T18:51:46.685Z,48.87
2022-09-26T18:54:17.647Z,40.07
2022-09-26T18:57:05.616Z,37.83
2022-09-26T18:59:36.678Z,33.00
2022-09-26T19:02:20.940Z,33.93
2022-09-26T19:04:49.902Z,27.87
2022-09-26T19:07:21.666Z,29.30
2022-09-26T19:09:51.763Z,32.77
2022-09-26T19:12:20.601Z,25.17
2022-09-26T19:14:49.159Z,20.63
2022-09-26T19:17:19.479Z,18.70
2022-09-26T19:19:48.392Z,18.03
2022-09-26T19:22:22.881Z,19.03
2022-09-26T19:24:54.038Z,19.70
2022-09-26T19:27:33.811Z,16.80
2022-09-26T19:30:05.731Z,76.20
2022-09-26T19:32:39.271Z,121.07
2022-09-26T19:35:14.142Z,158.50
2022-09-26T19:37:42.781Z,62.43
2022-09-26T19:40:15.471Z,266.00
2022-09-26T19:42:44.615Z,218.43
2022-09-26T19:45:14.504Z,438.30
2022-09-26T19:47:47.386Z,225.93
2022-09-26T19:50:21.848Z,29.57
2022-09-26T19:52:53.667Z,20.53
2022-09-26T19:55:24.893Z,492.53
2022-09-26T19:58:13.460Z,193.13
2022-09-26T20:00:43.775Z,709.20
2022-09-26T20:03:18.812Z,668.33
2022-09-26T20:05:49.605Z,47.47
2022-09-26T20:08:19.612Z,369.87
2022-09-26T20:10:48.460Z,492.37
2022-09-26T20:13:17.183Z,240.60
2022-09-26T20:15:46.405Z,601.00
2022-09-26T20:18:20.908Z,55.70
2022-09-26T20:20:53.428Z,16.50
2022-09-26T20:23:24.508Z,16.83
2022-09-26T20:25:54.222Z,17.27
2022-09-26T20:28:22.961Z,17.07
2022-09-26T20:30:55.488Z,16.50
2022-09-26T20:33:26.885Z,16.97
2022-09-26T20:36:03.169Z,16.23
2022-09-26T20:38:35.930Z,14.87
2022-09-26T20:41:12.895Z,16.17
2022-09-26T20:43:45.032Z,15.90
2022-09-26T20:46:14.203Z,16.67
2022-09-26T20:48:47.332Z,16.23
2022-09-26T20:51:21.105Z,16.53
2022-09-26T20:53:49.908Z,19.20
2022-09-26T20:56:22.026Z,18.37
2022-09-26T20:58:50.738Z,18.70
2022-09-26T21:01:21.926Z,18.97
2022-09-26T21:03:55.392Z,18.20
2022-09-26T21:06:25.231Z,20.70
2022-09-26T21:08:53.777Z,20.47
2022-09-26T21:11:23.067Z,19.37
2022-09-26T21:13:51.810Z,17.73
2022-09-26T21:16:22.913Z,18.63
2022-09-26T21:18:54.128Z,17.30
2022-09-26T21:21:25.190Z,18.37
2022-09-26T21:23:55.253Z,119.87
2022-09-26T21:26:26.041Z,137.80
2022-09-26T21:28:56.183Z,240.50
2022-09-26T21:31:27.663Z,41.33
2022-09-26T21:33:59.735Z,22.57
2022-09-26T21:36:35.133Z,19.47
2022-09-26T21:39:04.149Z,19.37
2022-09-26T21:41:32.793Z,18.40
2022-09-26T21:44:06.296Z,19.43
2022-09-26T21:46:34.858Z,18.40
2022-09-26T21:49:04.899Z,20.27
2022-09-26T21:51:33.622Z,19.23
2022-09-26T21:54:06.380Z,17.30
2022-09-26T21:56:39.097Z,16.83
2022-09-26T21:59:08.621Z,17.40
2022-09-26T22:01:37.107Z,16.57
2022-09-26T22:04:07.226Z,17.67
2022-09-26T22:06:35.696Z,18.97
2022-09-26T22:09:04.457Z,20.10
2022-09-26T22:11:33.074Z,20.07
2022-09-26T22:14:01.483Z,19.57
2022-09-26T22:16:30.050Z,19.47
2022-09-26T22:18:58.865Z,19.47
2022-09-26T22:21:29.028Z,18.47
2022-09-26T22:23:57.607Z,19.83
2022-09-26T22:26:26.107Z,20.13
2022-09-26T22:28:54.723Z,19.23
2022-09-26T22:31:23.251Z,47.07
2022-09-26T22:33:51.809Z,128.87
2022-09-26T22:36:20.216Z,144.20
2022-09-26T22:38:50.284Z,29.17
2022-09-26T22:41:19.281Z,22.13
2022-09-26T22:43:49.401Z,22.77
2022-09-26T22:46:18.052Z,22.93
2022-09-26T22:48:48.274Z,177.20
2022-09-26T22:51:18.376Z,77.53
2022-09-26T22:53:46.998Z,127.50
2022-09-26T22:56:18.271Z,71.90
2022-09-26T22:58:48.844Z,26.77
2022-09-26T23:01:19.368Z,22.70
2022-09-26T23:03:48.027Z,21.93
2022-09-26T23:06:17.586Z,20.57
2022-09-26T23:08:46.116Z,20.17
2022-09-26T23:11:15.269Z,21.03
2022-09-26T23:13:45.819Z,22.73
2022-09-26T23:16:16.409Z,23.03
2022-09-26T23:18:45.642Z,22.57
2022-09-26T23:21:15.562Z,19.90
2022-09-26T23:23:45.582Z,20.53
2022-09-26T23:26:17.411Z,21.03
2022-09-26T23:28:47.363Z,20.70
2022-09-26T23:31:15.872Z,21.37
2022-09-26T23:33:45.157Z,20.33
2022-09-26T23:36:14.416Z,20.03
2022-09-26T23:38:43.422Z,20.70
2022-09-26T23:41:13.765Z,21.37
2022-09-26T23:43:42.958Z,19.20
2022-09-26T23:46:13.221Z,17.47
2022-09-26T23:48:41.857Z,19.57
2022-09-26T23:51:11.496Z,18.50
2022-09-26T23:53:39.953Z,18.00
2022-09-26T23:56:11.003Z,18.60
2022-09-26T23:58:40.825Z,17.73
